AAL847 KPHL-KCLT
Flight info
| Callsign | AAL847 |
|---|---|
| Flight time | N/A |
| Altitude | 38000 |
| Route | STOEN Q75 GVE AIROW CHSLY6 |
| Aircraft | A21N/M-SDE2E3FGHIJ1RWXY/LB1 |
Departure
| Time | 2026-05-04 18:48 |
|---|---|
| Airport | Philadelphia International Airport (KPHL) |
Arrival
| Time | N/A |
|---|---|
| Airport | Charlotte Douglas International Airport (KCLT) |
| Time | Latitude | Longitude | Altitude | Speed | Heading |
|---|---|---|---|---|---|
| 2026-05-04 18:29 | 39.87428 | -75.24009 | 19 ft | 0 kts | 333° |
| 2026-05-04 18:39 | 39.87423 | -75.24005 | 19 ft | 2 kts | 333° |
| 2026-05-04 18:39 | 39.87409 | -75.23995 | 18 ft | 2 kts | 339° |
| 2026-05-04 18:39 | 39.87394 | -75.23993 | 18 ft | 2 kts | 6° |
| 2026-05-04 18:40 | 39.87380 | -75.23998 | 18 ft | 2 kts | 29° |
| 2026-05-04 18:40 | 39.87368 | -75.24010 | 18 ft | 2 kts | 51° |
| 2026-05-04 18:40 | 39.87361 | -75.24025 | 18 ft | 0 kts | 72° |
| 2026-05-04 18:40 | 39.87360 | -75.24033 | 18 ft | 1 kts | 77° |
| 2026-05-04 18:41 | 39.87359 | -75.24035 | 18 ft | 0 kts | 76° |
| 2026-05-04 18:42 | 39.87362 | -75.24023 | 18 ft | 4 kts | 76° |
| 2026-05-04 18:43 | 39.87377 | -75.23944 | 18 ft | 12 kts | 83° |
| 2026-05-04 18:43 | 39.87335 | -75.23843 | 18 ft | 13 kts | 99° |
| 2026-05-04 18:43 | 39.87334 | -75.23818 | 18 ft | 0 kts | 88° |
| 2026-05-04 18:43 | 39.87336 | -75.23773 | 19 ft | 8 kts | 93° |
| 2026-05-04 18:44 | 39.87274 | -75.23717 | 20 ft | 14 kts | 165° |
| 2026-05-04 18:44 | 39.87199 | -75.23690 | 19 ft | 19 kts | 165° |
| 2026-05-04 18:44 | 39.87116 | -75.23612 | 17 ft | 9 kts | 77° |
| 2026-05-04 18:44 | 39.87132 | -75.23524 | 17 ft | 10 kts | 81° |
| 2026-05-04 18:45 | 39.87123 | -75.23469 | 18 ft | 4 kts | 159° |
| 2026-05-04 18:45 | 39.87088 | -75.23457 | 18 ft | 5 kts | 165° |
| 2026-05-04 18:45 | 39.87053 | -75.23444 | 18 ft | 3 kts | 166° |
| 2026-05-04 18:45 | 39.87031 | -75.23438 | 18 ft | 2 kts | 166° |
| 2026-05-04 18:46 | 39.87012 | -75.23431 | 18 ft | 3 kts | 167° |
| 2026-05-04 18:46 | 39.86995 | -75.23426 | 18 ft | 0 kts | 167° |
| 2026-05-04 18:46 | 39.86994 | -75.23426 | 18 ft | 0 kts | 167° |
| 2026-05-04 18:46 | 39.86988 | -75.23424 | 18 ft | 3 kts | 167° |
| 2026-05-04 18:47 | 39.86920 | -75.23412 | 18 ft | 14 kts | 201° |
| 2026-05-04 18:47 | 39.86876 | -75.23541 | 18 ft | 25 kts | 255° |
| 2026-05-04 18:47 | 39.86760 | -75.24116 | 21 ft | 104 kts | 256° |
| 2026-05-04 18:47 | 39.86523 | -75.25307 | 69 ft | 161 kts | 253° |
| 2026-05-04 18:48 | 39.86230 | -75.26736 | 746 ft | 165 kts | 254° |
| 2026-05-04 18:48 | 39.85941 | -75.28148 | 1592 ft | 165 kts | 253° |
| 2026-05-04 18:48 | 39.85726 | -75.29604 | 2264 ft | 173 kts | 262° |
| 2026-05-04 18:48 | 39.85682 | -75.31240 | 2777 ft | 190 kts | 270° |
| 2026-05-04 18:49 | 39.85695 | -75.33028 | 3299 ft | 207 kts | 267° |
| 2026-05-04 18:49 | 39.85638 | -75.34975 | 3744 ft | 229 kts | 266° |
| 2026-05-04 18:49 | 39.85562 | -75.37122 | 4383 ft | 244 kts | 266° |
| 2026-05-04 18:49 | 39.85478 | -75.39356 | 5083 ft | 256 kts | 266° |
| 2026-05-04 18:50 | 39.85390 | -75.41644 | 5978 ft | 260 kts | 267° |
| 2026-05-04 18:50 | 39.85298 | -75.43968 | 6957 ft | 260 kts | 267° |
| 2026-05-04 18:50 | 39.85204 | -75.46314 | 7907 ft | 262 kts | 268° |
| 2026-05-04 18:50 | 39.85109 | -75.48644 | 8855 ft | 262 kts | 268° |
| 2026-05-04 18:51 | 39.85012 | -75.50990 | 9788 ft | 263 kts | 269° |
| 2026-05-04 18:51 | 39.84916 | -75.53366 | 10597 ft | 268 kts | 269° |
| 2026-05-04 18:51 | 39.84818 | -75.55835 | 11064 ft | 285 kts | 269° |
| 2026-05-04 18:51 | 39.84712 | -75.58498 | 11529 ft | 301 kts | 268° |
| 2026-05-04 18:52 | 39.84598 | -75.61231 | 12229 ft | 308 kts | 268° |
| 2026-05-04 18:52 | 39.84482 | -75.64011 | 13045 ft | 311 kts | 269° |
| 2026-05-04 18:52 | 39.84363 | -75.66825 | 13860 ft | 314 kts | 268° |
| 2026-05-04 18:52 | 39.84243 | -75.69646 | 14617 ft | 318 kts | 268° |
| 2026-05-04 18:53 | 39.84118 | -75.72530 | 15360 ft | 322 kts | 268° |
| 2026-05-04 18:53 | 39.83993 | -75.75449 | 16061 ft | 326 kts | 269° |
| 2026-05-04 18:53 | 39.83683 | -75.78381 | 16753 ft | 334 kts | 257° |
| 2026-05-04 18:53 | 39.82803 | -75.81173 | 17440 ft | 342 kts | 244° |
| 2026-05-04 18:54 | 39.81421 | -75.83701 | 18096 ft | 350 kts | 235° |
| 2026-05-04 18:54 | 39.79890 | -75.86146 | 18775 ft | 354 kts | 235° |
| 2026-05-04 18:54 | 39.78307 | -75.88638 | 19452 ft | 358 kts | 235° |
| 2026-05-04 18:54 | 39.76738 | -75.91112 | 20091 ft | 361 kts | 235° |
| 2026-05-04 18:55 | 39.75136 | -75.93647 | 20754 ft | 364 kts | 235° |